AirNav   Duncan Aviation - Near you to keep you flying
 
 1366 users online  

AZ50 Triangle Airpark
White Hills, Arizona, USA

GOING TO WHITE HILLS?


FAA INFORMATION EFFECTIVE 11 AUGUST 2022

Location

FAA Identifier: AZ50
Lat/Long: 35-42-59.0000N 114-28-48.0000W
35-42.983333N 114-28.800000W
35.7163889,-114.4800000
(estimated)
Elevation: 2460 ft. / 750 m (estimated)
Variation: 14E (1985)
From city: 5 miles SW of WHITE HILLS, AZ
Time zone: UTC -7 (year round; does not observe DST)
Zip code: 86441

Airport Operations

Airport use: Private use. Permission required prior to landing
Activation date: 07/1982
Control tower: no
ARTCC: LOS ANGELES CENTER
FSS: PRESCOTT FLIGHT SERVICE STATION
Attendance: CONTINUOUS
Wind indicator: yes
Segmented circle: no

Nearby radio navigation aids

VOR radial/distance  VOR name  Freq  Var
BLDr117/25.1BOULDER CITY VORTAC116.7015E
IGMr301/38.2KINGMAN VOR/DME108.8015E
LASr108/39.6LAS VEGAS VORTAC116.9015E

Airport Services

Runway Information

Runway 17/35

Dimensions: 3900 x 50 ft. / 1189 x 15 m
Surface: asphalt
Runway edge markings: RYS 17 & 35 THLDS MARKED WITH ORANGE CONES.
RUNWAY 17  RUNWAY 35
Traffic pattern: leftleft
Obstructions: nonepline

Runway 8/26

Dimensions: 1844 x 50 ft. / 562 x 15 m
Surface: dirt
Runway edge markings: RYS 08 & 26 THLDS MARKED WITH ORANGE CONES.
RUNWAY 8  RUNWAY 26
Traffic pattern: leftleft
Obstructions: nonepline

Airport Ownership and Management from official FAA records

Ownership: Privately-owned
Owner: TRIANGLE AIRPARK PROPERTY OWNERS
1834 HWY 95
BULLHEAD CITY, AZ 86442
Phone 928-763-7368
Manager: TRIANGLE AIRPARK PROPERTY OWNERS
1834 HWY 95
BULLHEAD CITY, AZ 86442
Phone 928-763-7368

Airport Operational Statistics

Aircraft based on the field: 17
Single engine airplanes: 10
Multi engine airplanes: 3
Gliders airplanes: 3
Ultralights: 1
    

Additional Remarks

FOR CD CTC LOS ANGELES ARTCC AT 661-575-2079.

Instrument Procedures

There are no published instrument procedures at AZ50.

Some nearby airports with instrument procedures:

KBVU - Boulder City Municipal Airport (23 nm NW)
KIFP - Laughlin/Bullhead International Airport (34 nm S)
KHND - Henderson Executive Airport (35 nm NW)
KIGM - Kingman Airport (38 nm SE)
KLAS - Harry Reid International Airport (39 nm NW)
 
Loc | Ops | Rwys | IFR | FBO | Links
Com | Nav | Svcs | Stats | Notes
Area around AZ50 (Triangle Airpark)
 
Road maps at: MapQuest Bing Google
 
Aerial photo
WARNING: Photo may not be current or correct
Aerial photo of AZ50 (Triangle Airpark)
Do you have a better or more recent aerial photo of Triangle Airpark that you would like to share? If so, please send us your photo.

 
Sectional chart

 
Airport distance calculator
Flying to Triangle Airpark? Find the distance to fly.

From to AZ50

Sunrise and sunset
Times for 15-Aug-2022
 Local
(UTC-7)
 Zulu
(UTC)
Morning civil twilight05:3112:31
Sunrise05:5812:58
Sunset19:2702:27
Evening civil twilight19:5402:54

Current date and time
Zulu (UTC)  15-Aug-2022 22:36:37
Local (UTC-7)  15-Aug-2022 15:36:37
 
METAR
KBVU 
23nm NW 
152215Z AUTO 00000KT 34/13 A2986 RMK AO2 PWINO TSNO
KHND 
36nm NW 
152156Z VRB05KT 10SM CLR 36/13 A2990 RMK AO2 SLP109 T03560133
KIFP 
38nm S 
152150Z 33010KT 20SM SCT100 36/14 A2977
KIGM 
39nm SE 
152151Z AUTO 36005KT 10SM CLR 32/15 A2998 RMK AO2 LTG DSNT SE SLP079 T03170150
KLAS 
39nm NW 
152156Z 07008KT 10SM FEW100 FEW120 BKN170 35/14 A2987 RMK AO2 SLP086 CB DSNT S AND W T03500139
KLSV 
40nm NW 
152158Z AUTO 32003KT 10SM M 36/15 A2983 RMK AO2 SLPNO T03630148 $
KVGT 
45nm NW 
152153Z VRB04KT 10SM CLR 35/14 A2986 RMK AO2 SLP099 T03500139
TAF
KHND 
36nm NW 
152045Z 1521/1618 04006KT P6SM FEW100 SCT120 FM152200 VRB06KT P6SM VCTS SCT120CB SCT150 TEMPO 1523/1603 VRB20G30KT FM160300 20007KT P6SM SCT120 FM161400 VRB05KT P6SM SCT120 SCT150
KIFP 
38nm S 
152110Z 1521/1618 33010KT P6SM SCT150 FM160000 27006KT P6SM VCTS FEW100 SCT150CB FM160400 04007KT P6SM SCT150 FM160800 VRB05KT P6SM FEW150
KLAS 
39nm NW 
152039Z 1521/1624 08009KT P6SM FEW100 FEW120 BKN160 FM152300 11007KT P6SM VCTS SCT120CB SCT150 TEMPO 1523/1602 VRB20G30KT FM160300 19006KT P6SM SCT150 FM161000 VRB05KT P6SM FEW150 FM162100 14007KT P6SM VCTS SCT120CB SCT150 TEMPO 1622/1624 VRB20G30KT
KLSV 
40nm NW 
151500Z 1515/1621 VRB06KT 9999 SCT150 BKN200 QNH2992INS BECMG 1517/1518 17010KT 9999 SCT140 BKN180 QNH2989INS TEMPO 1523/1604 VRB20G31KT VCTS FEW100CB BECMG 1606/1607 13008KT 9999 FEW150 SCT200 QNH2982INS BECMG 1615/1616 04012KT 9999 FEW160 QNH2989INS TX38/1521Z TN28/1612Z
NOTAMs
Click for the latest NOTAMs
NOTAMs are issued by the DoD/FAA and will open in a separate window not controlled by AirNav.

 

 
 

Would you like to see your business listed on this page?

 If your business provides an interesting product or service to pilots, flight crews, aircraft, or users of the Triangle Airpark, you should consider listing it here.  To start the listing process, click on the button below
 
Add a business
 

Other Pages about Triangle Airpark

Update a link
 
Copyright © AirNav, LLC. All rights reserved. Privacy Policy  Contact